Arvada, CO (80003)

4:16 AM MST on January 29, 2015 (GMT -0700)
Lake Arbor | Change Station
CLOSE
Current Station
Personal Weather Station
Location: Arvada, CO
Elevation: 5430 ft
Nearby Weather Stations

Elev 5430 ft 39.85 °N, 105.07 °W | Updated 1 second ago

Overcast
Overcast
38.4 °F
Feels Like 38 °F
N
0.0
Wind Variable Wind from North
Gusts 2.0 mph

Today
High -- | Low -- °F
--% Chance of Precip.
Yesterday
High -- | Low -- °F
Precip. -- in
7:11 AM 5:16 PM
Waxing Gibbous, 73% visible
Pressure 30.43 in
Visibility 10.0 miles
Clouds Overcast 4900 ft
Windchill 38 °F
Dew Point 29 °F
Humidity 69%
Rainfall 0.00 in
Snow Depth Not available.
UV 0 out of 12
Pollen 2.20 out of 12
Air Quality Not available.
Flu Activity Not available.
METAR KBJC 291056Z AUTO 30004KT 10SM OVC049 03/M01 A3043 RMK AO2

More Conditions Fewer Conditions

Pressure 30.43 in
Visibility 10.0 miles
Clouds Overcast 4900 ft
Windchill 38 °F
Dew Point 29 °F
Humidity 69%
Rainfall 0.00 in
Snow Depth Not available.
UV 0 out of 12
Pollen 2.20 out of 12
Air Quality Not available.
Flu Activity Not available.
METAR KBJC 291056Z AUTO 30004KT 10SM OVC049 03/M01 A3043 RMK AO2

More Conditions Fewer Conditions

10-Day Weather Forecast

Almanac

Astronomy

Jan. 29, 2015 Rise Set
Actual Time
Civil Twilight
Nautical Twilight
Astronomical Twilight
Moon
Length of Visible Light
Length of Day
Tomorrow will be .
, % of the Moon is Illuminated

Today's Extremes

State Highs State Lows

Community

WunderPhotos

Upload Photos

1,791,403 photos uploaded!

WunderBlogs® & News

Nearby

Air Quality

  Air Quality AQ Index Pollutant
Not available.

Snow Depth

Station Depth Elevation

Earthquake Activity

City Distance Mag. Time & Date
Minimum magnitude displayed is 2.5.

Coastal Water Temperatures

Place Temperature

Nearby Weather Stations